sensor_id;sensor_type;location;lat;lon;timestamp;pressure;altitude;pressure_sealevel;temperature;humidity
43281;BME280;62175;49.416;8.690;2023-04-05T00:01:13;101191.56;;;9.93;32.86
43281;BME280;62175;49.416;8.690;2023-04-05T00:03:40;101190.93;;;9.77;33.16
43281;BME280;62175;49.416;8.690;2023-04-05T00:06:08;101192.73;;;9.49;33.07
43281;BME280;62175;49.416;8.690;2023-04-05T00:08:35;101187.58;;;9.73;32.88
43281;BME280;62175;49.416;8.690;2023-04-05T00:11:02;101187.46;;;9.78;32.87
43281;BME280;62175;49.416;8.690;2023-04-05T00:13:29;101186.61;;;9.88;32.76
43281;BME280;62175;49.416;8.690;2023-04-05T00:15:57;101185.90;;;9.78;32.61
43281;BME280;62175;49.416;8.690;2023-04-05T00:18:24;101181.37;;;9.62;32.55
43281;BME280;62175;49.416;8.690;2023-04-05T00:20:52;101180.40;;;9.37;32.80
43281;BME280;62175;49.416;8.690;2023-04-05T00:23:19;101177.98;;;9.70;33.42
43281;BME280;62175;49.416;8.690;2023-04-05T00:25:47;101179.38;;;9.47;32.72
43281;BME280;62175;49.416;8.690;2023-04-05T00:28:14;101178.48;;;9.83;33.15
43281;BME280;62175;49.416;8.690;2023-04-05T00:30:42;101177.01;;;9.54;33.35
43281;BME280;62175;49.416;8.690;2023-04-05T00:33:11;101176.12;;;10.24;33.86
43281;BME280;62175;49.416;8.690;2023-04-05T00:35:38;101179.68;;;10.07;33.78
43281;BME280;62175;49.416;8.690;2023-04-05T00:38:05;101176.42;;;9.84;32.97
43281;BME280;62175;49.416;8.690;2023-04-05T00:40:33;101174.64;;;9.70;32.91
43281;BME280;62175;49.416;8.690;2023-04-05T00:43:01;101174.58;;;9.88;33.02
43281;BME280;62175;49.416;8.690;2023-04-05T00:45:28;101172.28;;;9.14;33.50
43281;BME280;62175;49.416;8.690;2023-04-05T00:47:56;101174.95;;;9.71;32.72
43281;BME280;62175;49.416;8.690;2023-04-05T00:50:23;101175.51;;;9.40;32.68
43281;BME280;62175;49.416;8.690;2023-04-05T00:52:51;101174.31;;;9.56;33.05
43281;BME280;62175;49.416;8.690;2023-04-05T00:55:19;101170.14;;;9.55;33.10
43281;BME280;62175;49.416;8.690;2023-04-05T00:57:47;101165.40;;;9.64;33.15
43281;BME280;62175;49.416;8.690;2023-04-05T01:00:14;101167.11;;;9.48;33.82
43281;BME280;62175;49.416;8.690;2023-04-05T01:02:51;101163.20;;;9.31;34.08
43281;BME280;62175;49.416;8.690;2023-04-05T01:05:33;101163.75;;;9.49;33.65
43281;BME280;62175;49.416;8.690;2023-04-05T01:08:14;101157.41;;;9.58;33.51
43281;BME280;62175;49.416;8.690;2023-04-05T01:10:45;101160.26;;;9.30;33.57
43281;BME280;62175;49.416;8.690;2023-04-05T01:13:15;101162.84;;;9.29;33.34
43281;BME280;62175;49.416;8.690;2023-04-05T01:15:42;101160.74;;;9.45;33.97
43281;BME280;62175;49.416;8.690;2023-04-05T01:18:10;101160.09;;;9.34;33.31
43281;BME280;62175;49.416;8.690;2023-04-05T01:20:41;101158.23;;;9.18;33.68
43281;BME280;62175;49.416;8.690;2023-04-05T01:23:26;101155.66;;;9.22;33.47
43281;BME280;62175;49.416;8.690;2023-04-05T01:27:06;101156.47;;;9.20;33.35
43281;BME280;62175;49.416;8.690;2023-04-05T01:29:50;101152.02;;;9.25;33.42
43281;BME280;62175;49.416;8.690;2023-04-05T01:32:27;101146.49;;;9.11;33.31
43281;BME280;62175;49.416;8.690;2023-04-05T01:35:03;101147.11;;;9.04;33.50
43281;BME280;62175;49.416;8.690;2023-04-05T01:37:33;101145.82;;;9.26;33.24
43281;BME280;62175;49.416;8.690;2023-04-05T01:40:00;101140.43;;;9.38;33.39
43281;BME280;62175;49.416;8.690;2023-04-05T01:42:27;101140.32;;;9.29;33.52
43281;BME280;62175;49.416;8.690;2023-04-05T01:44:56;101142.89;;;9.37;33.48
43281;BME280;62175;49.416;8.690;2023-04-05T01:47:23;101145.55;;;9.06;33.50
43281;BME280;62175;49.416;8.690;2023-04-05T01:49:50;101142.90;;;9.27;33.63
43281;BME280;62175;49.416;8.690;2023-04-05T01:52:18;101141.45;;;9.05;33.26
43281;BME280;62175;49.416;8.690;2023-04-05T01:54:45;101141.70;;;9.24;33.33
43281;BME280;62175;49.416;8.690;2023-04-05T01:57:12;101137.00;;;9.04;34.02
43281;BME280;62175;49.416;8.690;2023-04-05T01:59:40;101137.28;;;8.95;34.21
43281;BME280;62175;49.416;8.690;2023-04-05T02:02:07;101137.43;;;8.98;34.00
43281;BME280;62175;49.416;8.690;2023-04-05T02:04:35;101134.20;;;9.09;34.53
43281;BME280;62175;49.416;8.690;2023-04-05T02:07:02;101133.02;;;9.14;33.92
43281;BME280;62175;49.416;8.690;2023-04-05T02:09:29;101127.37;;;8.90;33.79
43281;BME280;62175;49.416;8.690;2023-04-05T02:11:57;101123.21;;;9.06;34.02
43281;BME280;62175;49.416;8.690;2023-04-05T02:14:24;101122.69;;;8.70;34.01
43281;BME280;62175;49.416;8.690;2023-04-05T02:16:52;101122.23;;;9.04;34.47
43281;BME280;62175;49.416;8.690;2023-04-05T02:19:20;101122.78;;;9.04;34.14
43281;BME280;62175;49.416;8.690;2023-04-05T02:21:47;101122.59;;;8.84;33.85
43281;BME280;62175;49.416;8.690;2023-04-05T02:24:14;101120.92;;;9.04;33.94
43281;BME280;62175;49.416;8.690;2023-04-05T02:26:42;101118.29;;;9.10;33.92
43281;BME280;62175;49.416;8.690;2023-04-05T02:29:09;101118.85;;;8.91;33.85
43281;BME280;62175;49.416;8.690;2023-04-05T02:31:37;101119.41;;;9.04;33.49
43281;BME280;62175;49.416;8.690;2023-04-05T02:34:04;101122.79;;;8.91;33.58
43281;BME280;62175;49.416;8.690;2023-04-05T02:36:31;101120.06;;;9.02;33.91
43281;BME280;62175;49.416;8.690;2023-04-05T02:38:59;101121.97;;;8.95;33.58
43281;BME280;62175;49.416;8.690;2023-04-05T02:41:26;101122.94;;;9.20;33.06
43281;BME280;62175;49.416;8.690;2023-04-05T02:43:53;101125.94;;;9.22;33.34
43281;BME280;62175;49.416;8.690;2023-04-05T02:46:21;101123.06;;;9.21;33.09
43281;BME280;62175;49.416;8.690;2023-04-05T02:48:48;101124.83;;;9.02;33.59
43281;BME280;62175;49.416;8.690;2023-04-05T02:51:15;101126.51;;;8.78;33.53
43281;BME280;62175;49.416;8.690;2023-04-05T02:53:43;101124.15;;;9.23;34.23
43281;BME280;62175;49.416;8.690;2023-04-05T02:56:10;101122.35;;;8.56;34.84
43281;BME280;62175;49.416;8.690;2023-04-05T02:58:37;101125.80;;;8.45;35.19
43281;BME280;62175;49.416;8.690;2023-04-05T03:01:05;101125.57;;;8.57;35.61
43281;BME280;62175;49.416;8.690;2023-04-05T03:03:32;101124.17;;;8.57;35.87
43281;BME280;62175;49.416;8.690;2023-04-05T03:06:02;101120.70;;;8.44;35.41
43281;BME280;62175;49.416;8.690;2023-04-05T03:08:30;101118.20;;;8.87;35.14
43281;BME280;62175;49.416;8.690;2023-04-05T03:11:05;101115.45;;;8.46;34.88
43281;BME280;62175;49.416;8.690;2023-04-05T03:13:33;101113.88;;;8.52;35.01
43281;BME280;62175;49.416;8.690;2023-04-05T03:16:00;101114.82;;;8.75;34.91
43281;BME280;62175;49.416;8.690;2023-04-05T03:18:28;101110.31;;;8.80;34.98
43281;BME280;62175;49.416;8.690;2023-04-05T03:20:56;101110.33;;;9.05;34.66
43281;BME280;62175;49.416;8.690;2023-04-05T03:23:25;101114.72;;;8.73;34.74
43281;BME280;62175;49.416;8.690;2023-04-05T03:25:54;101111.56;;;8.50;34.50
43281;BME280;62175;49.416;8.690;2023-04-05T03:28:21;101106.23;;;9.18;34.56
43281;BME280;62175;49.416;8.690;2023-04-05T03:30:48;101105.36;;;9.05;34.60
43281;BME280;62175;49.416;8.690;2023-04-05T03:33:16;101103.69;;;8.80;34.31
43281;BME280;62175;49.416;8.690;2023-04-05T03:35:43;101105.52;;;8.58;33.77
43281;BME280;62175;49.416;8.690;2023-04-05T03:38:10;101105.51;;;9.03;33.81
43281;BME280;62175;49.416;8.690;2023-04-05T03:40:38;101107.29;;;8.64;33.56
43281;BME280;62175;49.416;8.690;2023-04-05T03:43:05;101105.73;;;8.81;34.06
43281;BME280;62175;49.416;8.690;2023-04-05T03:45:32;101107.09;;;9.11;33.73
43281;BME280;62175;49.416;8.690;2023-04-05T03:48:00;101109.75;;;8.97;33.53
43281;BME280;62175;49.416;8.690;2023-04-05T03:50:27;101107.14;;;9.06;33.75
43281;BME280;62175;49.416;8.690;2023-04-05T03:52:54;101103.34;;;8.66;33.86
43281;BME280;62175;49.416;8.690;2023-04-05T03:55:21;101103.86;;;8.54;34.12
43281;BME280;62175;49.416;8.690;2023-04-05T03:57:51;101098.26;;;8.89;34.20
43281;BME280;62175;49.416;8.690;2023-04-05T04:00:18;101095.51;;;8.32;33.92
43281;BME280;62175;49.416;8.690;2023-04-05T04:02:46;101094.77;;;8.46;33.97
43281;BME280;62175;49.416;8.690;2023-04-05T04:05:15;101099.53;;;8.37;33.93
43281;BME280;62175;49.416;8.690;2023-04-05T04:07:43;101096.38;;;8.51;34.56
43281;BME280;62175;49.416;8.690;2023-04-05T04:10:12;101097.12;;;8.28;34.11
43281;BME280;62175;49.416;8.690;2023-04-05T04:12:39;101099.13;;;8.59;34.36
43281;BME280;62175;49.416;8.690;2023-04-05T04:15:07;101102.44;;;8.35;34.34
43281;BME280;62175;49.416;8.690;2023-04-05T04:17:36;101105.39;;;8.56;34.68
43281;BME280;62175;49.416;8.690;2023-04-05T04:20:05;101106.23;;;8.45;34.96
43281;BME280;62175;49.416;8.690;2023-04-05T04:22:32;101104.64;;;8.58;34.87
43281;BME280;62175;49.416;8.690;2023-04-05T04:25:00;101104.95;;;8.28;35.24
43281;BME280;62175;49.416;8.690;2023-04-05T04:27:28;101105.18;;;8.44;34.89
43281;BME280;62175;49.416;8.690;2023-04-05T04:29:56;101104.50;;;8.34;35.29
43281;BME280;62175;49.416;8.690;2023-04-05T04:32:23;101106.09;;;8.42;34.96
43281;BME280;62175;49.416;8.690;2023-04-05T04:34:50;101100.02;;;8.44;35.52
43281;BME280;62175;49.416;8.690;2023-04-05T04:37:17;101098.49;;;8.18;35.56
43281;BME280;62175;49.416;8.690;2023-04-05T04:39:45;101097.50;;;8.55;35.44
43281;BME280;62175;49.416;8.690;2023-04-05T04:42:13;101098.08;;;8.52;36.13
43281;BME280;62175;49.416;8.690;2023-04-05T04:44:41;101097.66;;;8.24;35.95
43281;BME280;62175;49.416;8.690;2023-04-05T04:47:08;101095.92;;;8.35;35.63
43281;BME280;62175;49.416;8.690;2023-04-05T04:49:35;101097.20;;;8.46;35.63
43281;BME280;62175;49.416;8.690;2023-04-05T04:52:03;101096.90;;;8.16;35.43
43281;BME280;62175;49.416;8.690;2023-04-05T04:54:30;101102.95;;;8.34;36.16
43281;BME280;62175;49.416;8.690;2023-04-05T04:56:57;101101.75;;;8.53;35.92
43281;BME280;62175;49.416;8.690;2023-04-05T04:59:25;101100.66;;;8.45;36.62
43281;BME280;62175;49.416;8.690;2023-04-05T05:01:52;101097.67;;;8.32;35.49
43281;BME280;62175;49.416;8.690;2023-04-05T05:04:20;101102.24;;;8.31;35.72
43281;BME280;62175;49.416;8.690;2023-04-05T05:06:49;101103.69;;;8.30;35.62
43281;BME280;62175;49.416;8.690;2023-04-05T05:09:16;101103.09;;;8.11;35.56
43281;BME280;62175;49.416;8.690;2023-04-05T05:11:44;101100.94;;;8.24;36.06
43281;BME280;62175;49.416;8.690;2023-04-05T05:14:11;101100.86;;;7.86;35.29
43281;BME280;62175;49.416;8.690;2023-04-05T05:16:39;101104.91;;;7.87;34.90
43281;BME280;62175;49.416;8.690;2023-04-05T05:19:06;101106.27;;;7.97;35.07
43281;BME280;62175;49.416;8.690;2023-04-05T05:21:34;101106.42;;;7.99;34.80
43281;BME280;62175;49.416;8.690;2023-04-05T05:24:01;101107.74;;;8.12;35.33
43281;BME280;62175;49.416;8.690;2023-04-05T05:26:28;101109.67;;;8.08;35.17
43281;BME280;62175;49.416;8.690;2023-04-05T05:29:00;101110.07;;;7.87;34.95
43281;BME280;62175;49.416;8.690;2023-04-05T05:31:27;101113.37;;;8.11;35.42
43281;BME280;62175;49.416;8.690;2023-04-05T05:33:55;101109.98;;;8.05;34.84
43281;BME280;62175;49.416;8.690;2023-04-05T05:36:23;101110.88;;;8.01;34.98
43281;BME280;62175;49.416;8.690;2023-04-05T05:38:50;101114.92;;;8.17;35.09
43281;BME280;62175;49.416;8.690;2023-04-05T05:41:18;101117.27;;;8.10;35.00
43281;BME280;62175;49.416;8.690;2023-04-05T05:43:45;101121.52;;;8.32;35.55
43281;BME280;62175;49.416;8.690;2023-04-05T05:46:13;101122.17;;;7.88;36.42
43281;BME280;62175;49.416;8.690;2023-04-05T05:48:40;101118.83;;;8.09;37.28
43281;BME280;62175;49.416;8.690;2023-04-05T05:51:08;101119.04;;;8.16;37.57
43281;BME280;62175;49.416;8.690;2023-04-05T05:53:36;101117.10;;;8.16;37.51
43281;BME280;62175;49.416;8.690;2023-04-05T05:56:04;101117.75;;;7.99;37.97
43281;BME280;62175;49.416;8.690;2023-04-05T05:58:32;101116.75;;;8.06;37.70
43281;BME280;62175;49.416;8.690;2023-04-05T06:01:00;101118.34;;;8.09;37.78
43281;BME280;62175;49.416;8.690;2023-04-05T06:03:27;101123.24;;;8.00;38.16
43281;BME280;62175;49.416;8.690;2023-04-05T06:05:56;101124.73;;;8.14;37.72
43281;BME280;62175;49.416;8.690;2023-04-05T06:08:24;101127.27;;;7.83;37.75
43281;BME280;62175;49.416;8.690;2023-04-05T06:10:52;101125.08;;;8.18;37.74
43281;BME280;62175;49.416;8.690;2023-04-05T06:13:20;101124.77;;;8.16;37.87
43281;BME280;62175;49.416;8.690;2023-04-05T06:15:47;101126.40;;;8.27;38.03
43281;BME280;62175;49.416;8.690;2023-04-05T06:18:15;101128.10;;;8.04;37.94
43281;BME280;62175;49.416;8.690;2023-04-05T06:20:43;101127.67;;;8.18;38.26
43281;BME280;62175;49.416;8.690;2023-04-05T06:23:10;101126.61;;;8.09;38.30
43281;BME280;62175;49.416;8.690;2023-04-05T06:25:37;101127.81;;;8.18;38.56
43281;BME280;62175;49.416;8.690;2023-04-05T06:28:05;101129.91;;;7.87;38.38
43281;BME280;62175;49.416;8.690;2023-04-05T06:30:33;101132.53;;;8.06;38.41
43281;BME280;62175;49.416;8.690;2023-04-05T06:33:00;101132.94;;;8.23;38.77
43281;BME280;62175;49.416;8.690;2023-04-05T06:35:27;101131.89;;;8.16;38.37
43281;BME280;62175;49.416;8.690;2023-04-05T06:37:54;101128.10;;;7.90;39.14
43281;BME280;62175;49.416;8.690;2023-04-05T06:40:22;101130.48;;;8.17;38.88
43281;BME280;62175;49.416;8.690;2023-04-05T06:42:49;101128.77;;;8.29;38.86
43281;BME280;62175;49.416;8.690;2023-04-05T06:45:18;101126.27;;;8.40;38.88
43281;BME280;62175;49.416;8.690;2023-04-05T06:47:45;101127.70;;;8.48;39.27
43281;BME280;62175;49.416;8.690;2023-04-05T06:50:12;101132.55;;;8.26;38.91
43281;BME280;62175;49.416;8.690;2023-04-05T06:52:40;101132.48;;;8.48;38.69
43281;BME280;62175;49.416;8.690;2023-04-05T06:55:08;101131.19;;;8.55;38.66
43281;BME280;62175;49.416;8.690;2023-04-05T06:57:35;101131.43;;;8.65;38.68
43281;BME280;62175;49.416;8.690;2023-04-05T07:00:02;101132.41;;;8.37;38.64
43281;BME280;62175;49.416;8.690;2023-04-05T07:02:30;101130.72;;;8.64;38.98
43281;BME280;62175;49.416;8.690;2023-04-05T07:04:57;101133.70;;;8.48;38.31
43281;BME280;62175;49.416;8.690;2023-04-05T07:07:24;101133.39;;;8.31;38.16
43281;BME280;62175;49.416;8.690;2023-04-05T07:09:52;101137.00;;;8.54;38.25
43281;BME280;62175;49.416;8.690;2023-04-05T07:12:19;101136.23;;;8.80;37.89
43281;BME280;62175;49.416;8.690;2023-04-05T07:14:47;101136.05;;;8.76;38.00
43281;BME280;62175;49.416;8.690;2023-04-05T07:17:14;101139.10;;;8.66;37.01
43281;BME280;62175;49.416;8.690;2023-04-05T07:19:41;101138.03;;;8.68;36.95
43281;BME280;62175;49.416;8.690;2023-04-05T07:22:09;101130.57;;;8.79;36.56
43281;BME280;62175;49.416;8.690;2023-04-05T07:24:36;101134.21;;;8.55;35.96
43281;BME280;62175;49.416;8.690;2023-04-05T07:27:04;101128.87;;;8.98;35.85
43281;BME280;62175;49.416;8.690;2023-04-05T07:29:31;101126.30;;;9.10;35.81
43281;BME280;62175;49.416;8.690;2023-04-05T07:31:58;101129.86;;;8.93;35.09
43281;BME280;62175;49.416;8.690;2023-04-05T07:34:26;101128.48;;;8.64;35.56
43281;BME280;62175;49.416;8.690;2023-04-05T07:36:53;101124.31;;;9.07;35.77
43281;BME280;62175;49.416;8.690;2023-04-05T07:39:20;101123.59;;;8.91;35.29
43281;BME280;62175;49.416;8.690;2023-04-05T07:41:48;101125.55;;;8.84;34.17
43281;BME280;62175;49.416;8.690;2023-04-05T07:44:15;101126.53;;;8.97;34.83
43281;BME280;62175;49.416;8.690;2023-04-05T07:46:43;101123.27;;;9.11;35.23
43281;BME280;62175;49.416;8.690;2023-04-05T07:49:10;101126.91;;;8.86;35.69
43281;BME280;62175;49.416;8.690;2023-04-05T07:51:37;101126.43;;;9.04;35.91
43281;BME280;62175;49.416;8.690;2023-04-05T07:54:05;101126.75;;;9.10;34.55
43281;BME280;62175;49.416;8.690;2023-04-05T07:56:32;101127.94;;;9.31;35.51
43281;BME280;62175;49.416;8.690;2023-04-05T07:58:59;101129.80;;;9.02;36.29
43281;BME280;62175;49.416;8.690;2023-04-05T08:01:26;101128.68;;;9.02;34.41
43281;BME280;62175;49.416;8.690;2023-04-05T08:03:54;101129.70;;;8.75;34.85
43281;BME280;62175;49.416;8.690;2023-04-05T08:06:21;101132.46;;;8.93;35.33
43281;BME280;62175;49.416;8.690;2023-04-05T08:08:49;101132.31;;;8.76;35.31
43281;BME280;62175;49.416;8.690;2023-04-05T08:11:16;101132.51;;;9.05;35.79
43281;BME280;62175;49.416;8.690;2023-04-05T08:13:44;101131.12;;;9.35;35.94
43281;BME280;62175;49.416;8.690;2023-04-05T08:16:11;101129.27;;;8.82;35.82
43281;BME280;62175;49.416;8.690;2023-04-05T08:18:38;101130.57;;;9.39;35.65
43281;BME280;62175;49.416;8.690;2023-04-05T08:21:06;101129.16;;;9.32;35.90
43281;BME280;62175;49.416;8.690;2023-04-05T08:23:33;101130.27;;;9.23;37.31
43281;BME280;62175;49.416;8.690;2023-04-05T08:26:00;101129.87;;;9.41;36.12
43281;BME280;62175;49.416;8.690;2023-04-05T08:28:28;101129.62;;;9.17;35.52
43281;BME280;62175;49.416;8.690;2023-04-05T08:30:55;101126.14;;;9.19;35.67
43281;BME280;62175;49.416;8.690;2023-04-05T08:33:23;101130.61;;;9.13;35.66
43281;BME280;62175;49.416;8.690;2023-04-05T08:35:50;101126.18;;;9.06;35.65
43281;BME280;62175;49.416;8.690;2023-04-05T08:38:42;101120.25;;;9.68;36.17
43281;BME280;62175;49.416;8.690;2023-04-05T08:41:21;101120.70;;;9.45;36.20
43281;BME280;62175;49.416;8.690;2023-04-05T08:43:59;101122.71;;;9.45;36.81
43281;BME280;62175;49.416;8.690;2023-04-05T08:46:32;101119.92;;;9.50;36.06
43281;BME280;62175;49.416;8.690;2023-04-05T08:49:04;101118.91;;;9.50;35.64
43281;BME280;62175;49.416;8.690;2023-04-05T08:51:32;101116.29;;;9.59;36.05
43281;BME280;62175;49.416;8.690;2023-04-05T08:53:59;101118.68;;;9.07;36.12
43281;BME280;62175;49.416;8.690;2023-04-05T08:56:30;101118.52;;;9.24;34.61
43281;BME280;62175;49.416;8.690;2023-04-05T08:59:02;101116.65;;;9.62;35.51
43281;BME280;62175;49.416;8.690;2023-04-05T09:01:31;101114.21;;;9.78;35.65
43281;BME280;62175;49.416;8.690;2023-04-05T09:04:00;101113.56;;;9.77;35.23
43281;BME280;62175;49.416;8.690;2023-04-05T09:06:27;101108.19;;;9.95;35.83
43281;BME280;62175;49.416;8.690;2023-04-05T09:08:57;101105.84;;;9.73;34.13
43281;BME280;62175;49.416;8.690;2023-04-05T09:11:24;101103.01;;;9.99;34.60
43281;BME280;62175;49.416;8.690;2023-04-05T09:13:51;101106.33;;;9.89;35.62
43281;BME280;62175;49.416;8.690;2023-04-05T09:16:19;101104.99;;;9.97;35.24
43281;BME280;62175;49.416;8.690;2023-04-05T09:18:46;101102.33;;;9.51;35.13
43281;BME280;62175;49.416;8.690;2023-04-05T09:21:13;101104.77;;;9.53;36.42
43281;BME280;62175;49.416;8.690;2023-04-05T09:23:51;101101.59;;;10.05;34.81
43281;BME280;62175;49.416;8.690;2023-04-05T09:26:24;101102.22;;;10.00;35.02
43281;BME280;62175;49.416;8.690;2023-04-05T09:28:55;101103.67;;;9.77;34.28
43281;BME280;62175;49.416;8.690;2023-04-05T09:31:35;101100.99;;;9.78;34.43
43281;BME280;62175;49.416;8.690;2023-04-05T09:34:05;101100.52;;;9.83;34.22
43281;BME280;62175;49.416;8.690;2023-04-05T09:36:49;101097.11;;;9.70;35.07
43281;BME280;62175;49.416;8.690;2023-04-05T09:39:16;101097.99;;;10.16;36.37
43281;BME280;62175;49.416;8.690;2023-04-05T09:42:02;101095.64;;;10.06;36.36
43281;BME280;62175;49.416;8.690;2023-04-05T09:44:48;101096.55;;;9.81;33.58
43281;BME280;62175;49.416;8.690;2023-04-05T09:47:16;101090.62;;;9.98;33.46
43281;BME280;62175;49.416;8.690;2023-04-05T09:49:43;101091.48;;;10.04;33.92
43281;BME280;62175;49.416;8.690;2023-04-05T09:52:21;101089.19;;;10.20;34.84
43281;BME280;62175;49.416;8.690;2023-04-05T09:54:52;101084.92;;;10.26;35.24
43281;BME280;62175;49.416;8.690;2023-04-05T09:57:19;101084.06;;;10.46;34.32
43281;BME280;62175;49.416;8.690;2023-04-05T09:59:46;101082.40;;;10.26;34.01
43281;BME280;62175;49.416;8.690;2023-04-05T10:02:13;101084.12;;;10.12;33.85
43281;BME280;62175;49.416;8.690;2023-04-05T10:04:42;101085.55;;;9.86;33.13
43281;BME280;62175;49.416;8.690;2023-04-05T10:07:12;101082.00;;;9.70;33.05
43281;BME280;62175;49.416;8.690;2023-04-05T10:09:40;101078.29;;;9.99;33.50
43281;BME280;62175;49.416;8.690;2023-04-05T10:12:08;101080.32;;;10.20;34.16
43281;BME280;62175;49.416;8.690;2023-04-05T10:14:36;101078.30;;;10.58;34.57
43281;BME280;62175;49.416;8.690;2023-04-05T10:17:08;101077.29;;;10.21;34.77
43281;BME280;62175;49.416;8.690;2023-04-05T10:19:44;101076.80;;;10.20;34.19
43281;BME280;62175;49.416;8.690;2023-04-05T10:22:21;101074.67;;;10.13;33.72
43281;BME280;62175;49.416;8.690;2023-04-05T10:24:53;101072.11;;;10.27;33.58
43281;BME280;62175;49.416;8.690;2023-04-05T10:27:28;101067.85;;;10.29;33.86
43281;BME280;62175;49.416;8.690;2023-04-05T10:30:03;101069.26;;;10.42;34.35
43281;BME280;62175;49.416;8.690;2023-04-05T10:32:42;101074.23;;;10.24;33.75
43281;BME280;62175;49.416;8.690;2023-04-05T10:35:16;101072.47;;;10.23;32.21
43281;BME280;62175;49.416;8.690;2023-04-05T10:37:53;101070.31;;;10.32;33.05
43281;BME280;62175;49.416;8.690;2023-04-05T10:40:26;101071.29;;;10.12;33.14
43281;BME280;62175;49.416;8.690;2023-04-05T10:42:57;101065.06;;;9.89;32.79
43281;BME280;62175;49.416;8.690;2023-04-05T10:45:27;101054.51;;;10.12;33.47
43281;BME280;62175;49.416;8.690;2023-04-05T10:47:58;101050.69;;;10.28;34.93
43281;BME280;62175;49.416;8.690;2023-04-05T10:50:29;101049.44;;;10.19;34.16
43281;BME280;62175;49.416;8.690;2023-04-05T10:52:58;101050.37;;;10.48;34.17
43281;BME280;62175;49.416;8.690;2023-04-05T10:55:28;101051.82;;;10.29;33.15
43281;BME280;62175;49.416;8.690;2023-04-05T10:57:57;101046.78;;;10.59;33.53
43281;BME280;62175;49.416;8.690;2023-04-05T11:00:25;101048.27;;;10.44;33.66
43281;BME280;62175;49.416;8.690;2023-04-05T11:02:53;101048.65;;;10.47;33.93
43281;BME280;62175;49.416;8.690;2023-04-05T11:05:29;101045.08;;;10.34;34.47
43281;BME280;62175;49.416;8.690;2023-04-05T11:08:01;101039.80;;;10.43;33.42
43281;BME280;62175;49.416;8.690;2023-04-05T11:10:30;101046.92;;;10.30;33.03
43281;BME280;62175;49.416;8.690;2023-04-05T11:13:07;101036.90;;;10.36;32.65
43281;BME280;62175;49.416;8.690;2023-04-05T11:15:35;101031.98;;;10.60;33.22
43281;BME280;62175;49.416;8.690;2023-04-05T11:18:05;101024.33;;;10.54;32.58
43281;BME280;62175;49.416;8.690;2023-04-05T11:20:42;101021.64;;;10.52;32.85
43281;BME280;62175;49.416;8.690;2023-04-05T11:23:10;101019.81;;;10.71;34.21
43281;BME280;62175;49.416;8.690;2023-04-05T11:25:39;101013.98;;;10.95;33.43
43281;BME280;62175;49.416;8.690;2023-04-05T11:28:06;101011.54;;;10.88;32.33
43281;BME280;62175;49.416;8.690;2023-04-05T11:30:50;101013.75;;;10.89;33.40
43281;BME280;62175;49.416;8.690;2023-04-05T11:34:23;101011.65;;;10.78;34.43
43281;BME280;62175;49.416;8.690;2023-04-05T11:36:50;101009.92;;;11.25;34.14
43281;BME280;62175;49.416;8.690;2023-04-05T11:39:25;101006.68;;;11.32;33.78
43281;BME280;62175;49.416;8.690;2023-04-05T11:42:01;101000.76;;;11.21;36.67
43281;BME280;62175;49.416;8.690;2023-04-05T11:44:37;101000.99;;;11.24;34.07
43281;BME280;62175;49.416;8.690;2023-04-05T11:47:05;101000.46;;;11.52;34.32
43281;BME280;62175;49.416;8.690;2023-04-05T11:49:33;100999.14;;;11.32;33.35
43281;BME280;62175;49.416;8.690;2023-04-05T11:52:09;100996.96;;;11.32;33.54
43281;BME280;62175;49.416;8.690;2023-04-05T11:54:37;100995.96;;;11.46;34.25
43281;BME280;62175;49.416;8.690;2023-04-05T11:57:04;100996.98;;;11.59;33.65
43281;BME280;62175;49.416;8.690;2023-04-05T11:59:32;100992.85;;;11.87;33.24
43281;BME280;62175;49.416;8.690;2023-04-05T12:02:00;100997.60;;;11.73;33.18
43281;BME280;62175;49.416;8.690;2023-04-05T12:04:28;100991.20;;;11.58;33.24
43281;BME280;62175;49.416;8.690;2023-04-05T12:07:13;100990.90;;;11.47;32.64
43281;BME280;62175;49.416;8.690;2023-04-05T12:10:16;100987.78;;;11.40;32.50
43281;BME280;62175;49.416;8.690;2023-04-05T12:12:44;100983.58;;;11.78;34.31
43281;BME280;62175;49.416;8.690;2023-04-05T12:15:12;100983.29;;;12.04;33.62
43281;BME280;62175;49.416;8.690;2023-04-05T12:17:41;100979.69;;;11.52;32.47
43281;BME280;62175;49.416;8.690;2023-04-05T12:20:10;100974.23;;;11.24;32.59
43281;BME280;62175;49.416;8.690;2023-04-05T12:22:40;100969.29;;;11.37;32.49
43281;BME280;62175;49.416;8.690;2023-04-05T12:25:08;100966.59;;;11.56;31.91
43281;BME280;62175;49.416;8.690;2023-04-05T12:27:37;100967.96;;;11.68;31.64
43281;BME280;62175;49.416;8.690;2023-04-05T12:30:06;100967.70;;;11.78;32.49
43281;BME280;62175;49.416;8.690;2023-04-05T12:32:36;100963.52;;;11.42;32.61
43281;BME280;62175;49.416;8.690;2023-04-05T12:35:10;100963.49;;;11.57;32.03
43281;BME280;62175;49.416;8.690;2023-04-05T12:37:38;100960.19;;;11.50;30.37
43281;BME280;62175;49.416;8.690;2023-04-05T12:40:07;100956.29;;;11.41;31.52
43281;BME280;62175;49.416;8.690;2023-04-05T12:42:35;100953.02;;;12.06;31.13
43281;BME280;62175;49.416;8.690;2023-04-05T12:45:04;100952.14;;;11.88;31.04
43281;BME280;62175;49.416;8.690;2023-04-05T12:47:33;100954.02;;;11.84;32.33
43281;BME280;62175;49.416;8.690;2023-04-05T12:50:17;100952.95;;;11.51;30.66
43281;BME280;62175;49.416;8.690;2023-04-05T12:52:53;100946.51;;;11.54;30.15
43281;BME280;62175;49.416;8.690;2023-04-05T12:55:20;100948.20;;;11.35;31.55
43281;BME280;62175;49.416;8.690;2023-04-05T12:57:49;100946.83;;;11.86;30.69
43281;BME280;62175;49.416;8.690;2023-04-05T13:00:18;100938.20;;;11.62;32.06
43281;BME280;62175;49.416;8.690;2023-04-05T13:02:51;100941.71;;;11.82;34.01
43281;BME280;62175;49.416;8.690;2023-04-05T13:05:20;100935.97;;;11.62;30.42
43281;BME280;62175;49.416;8.690;2023-04-05T13:07:48;100933.10;;;11.84;31.47
43281;BME280;62175;49.416;8.690;2023-04-05T13:10:15;100931.70;;;11.76;31.30